Dnipropetrovs'k, Ukraine

12:07 AM EEST on October 24, 2014 (GMT +0300)
Dnipropetrovs'k | Change Station
CLOSE
Current Station
Airport
Location: Dnipropetrovs'k,
Elevation: 146 m
Nearby Weather Stations

Elev 146 m 48.36 °N, 35.10 °E | Updated 7 minutes ago

Light Rain Showers
Light Showers Rain
0 °C
Feels Like -7 °C
N
32
Wind Variable Wind from ENE

Today
High -- | Low -- °C
--% Chance of Precip.
Yesterday
High -- | Low -- °C
Precip. -- mm
7:12 AM 5:34 PM
Waning Crescent, 0% visible
Pressure 1022 hPa
Visibility 10.0 kilometers
Clouds Mostly Cloudy 1005 m
Windchill -7 °C
Dew Point -2 °C
Humidity 87%
Rainfall 0.0 mm
Snow Depth Not available.
UV 0 out of 12
Pollen Not available.
Air Quality Not available.
Flu Activity Not available.
METAR UKDD 232100Z 07009MPS 9999 -SHRA BKN033CB 00/M02 Q1022 08210256 TEMPO 08012G17MPS 3100 -FZRA BR BKN015CB

More Conditions Fewer Conditions

Pressure 1022 hPa
Visibility 10.0 kilometers
Clouds Mostly Cloudy 1005 m
Windchill -7 °C
Dew Point -2 °C
Humidity 87%
Rainfall 0.0 mm
Snow Depth Not available.
UV 0 out of 12
Pollen Not available.
Air Quality Not available.
Flu Activity Not available.
METAR UKDD 232100Z 07009MPS 9999 -SHRA BKN033CB 00/M02 Q1022 08210256 TEMPO 08012G17MPS 3100 -FZRA BR BKN015CB

More Conditions Fewer Conditions

10-Day Weather Forecast

Almanac

Astronomy

Oct. 24, 2014 Rise Set
Actual Time 7:12 AM EEST 5:34 PM EEST
Civil Twilight 6:40 AM EEST 6:06 PM EEST
Nautical Twilight 6:03 AM EEST 6:42 PM EEST
Astronomical Twilight 5:27 AM EEST 7:19 PM EEST
Moon 7:32 AM EEST (10/24) 5:58 PM EEST (10/24)
Length of Visible Light 11h 26m
Length of Day
10h 21m
Tomorrow will be 3m 18s shorter.
Waning Crescent, 0% of the Moon is Illuminated
Oct 23
Waning Crescent
Oct 23
New
Oct 30
First Quarter
Nov 6
Full
Nov 14
Last Quarter

Yesterday's Extremes

Country Highs Country Lows

Community

WunderPhotos

Upload Photos

1,764,371 photos uploaded!

WunderBlogs® & News

By Dr. Jeff Masters
Director of Meteorology, Weather Underground
By Kari Strenfel
Meteorologist, Weather Underground
By Christopher C. Burt
Weather Historian, Weather Underground
October 23, 2014
October 23, 2014
October 23, 2014

Nearby

Snow Depth

Not available.

Earthquake Activity

City Distance Mag. Time & Date
No recent earthquake activity has been reported nearby.
Minimum magnitude displayed is 2.5.

Coastal Water Temperatures

Place Temperature
No Stations Reporting

Nearby Weather Stations